Time;durP1;ratioP1;P1;durP2;ratioP2;P2;SDS_P1;SDS_P2;PMS_P1;PMS_P2;Temp;Humidity;BMP_temperature;BMP_pressure;BME280_temperature;BME280_humidity;BME280_pressure;Samples;Min_cycle;Max_cycle;Signal;HPM_P1;HPM_P2
2024/04/13 00:02:15;;;;;;;18.05;13.80;;;;;;;;;;5485570;26;19998;-58
2024/04/13 00:04:41;;;;;;;18.27;14.45;;;;;;;;;;5486017;26;20352;-57
2024/04/13 00:07:10;;;;;;;15.85;12.98;;;;;;;;;;5483025;26;20082;-56
2024/04/13 00:09:39;;;;;;;18.40;14.63;;;;;;;;;;5486100;26;20023;-58
2024/04/13 00:12:08;;;;;;;19.27;14.45;;;;;;;;;;5485724;26;20002;-58
2024/04/13 00:14:34;;;;;;;21.88;15.30;;;;;;;;;;5480931;26;20010;-58
2024/04/13 00:17:03;;;;;;;21.02;15.32;;;;;;;;;;5479805;26;20011;-57
2024/04/13 00:19:29;;;;;;;20.17;15.45;;;;;;;;;;5471872;26;20018;-57
2024/04/13 00:22:00;;;;;;;19.10;15.98;;;;;;;;;;5485173;26;20012;-58
2024/04/13 00:24:26;;;;;;;20.80;14.85;;;;;;;;;;5481906;26;20287;-55
2024/04/13 00:26:58;;;;;;;17.52;14.55;;;;;;;;;;5481714;26;20446;-59
2024/04/13 00:29:24;;;;;;;20.77;15.43;;;;;;;;;;5487164;26;20009;-58
2024/04/13 00:31:52;;;;;;;18.00;13.88;;;;;;;;;;5490004;26;20277;-57
2024/04/13 00:34:18;;;;;;;19.73;13.40;;;;;;;;;;5486060;26;20006;-55
2024/04/13 00:36:47;;;;;;;18.40;14.90;;;;;;;;;;5489132;26;20078;-58
2024/04/13 00:39:13;;;;;;;18.17;13.77;;;;;;;;;;5489679;26;20051;-57
2024/04/13 00:41:41;;;;;;;16.45;13.93;;;;;;;;;;5489279;26;20006;-57
2024/04/13 00:44:10;;;;;;;14.63;12.07;;;;;;;;;;5489137;26;20344;-59
2024/04/13 00:46:42;;;;;;;15.38;11.52;;;;;;;;;;5489581;26;19998;-57
2024/04/13 00:49:13;;;;;;;16.35;10.82;;;;;;;;;;5489334;26;20013;-59
2024/04/13 00:51:45;;;;;;;16.30;11.57;;;;;;;;;;5489648;26;20013;-56
2024/04/13 00:54:14;;;;;;;13.32;10.77;;;;;;;;;;5489069;26;19994;-59
2024/04/13 00:56:43;;;;;;;14.32;11.45;;;;;;;;;;5489012;26;20026;-58
2024/04/13 00:59:12;;;;;;;12.27;10.50;;;;;;;;;;5489009;26;19998;-57
2024/04/13 01:01:41;;;;;;;13.07;9.88;;;;;;;;;;5489151;26;20005;-59
2024/04/13 01:04:08;;;;;;;12.55;9.40;;;;;;;;;;5488939;26;20009;-58
2024/04/13 01:06:38;;;;;;;14.57;9.88;;;;;;;;;;5476829;26;20005;-54
2024/04/13 01:09:04;;;;;;;14.85;10.32;;;;;;;;;;5488900;26;20432;-59
2024/04/13 01:11:34;;;;;;;12.98;9.93;;;;;;;;;;5489114;26;19998;-58
2024/04/13 01:14:01;;;;;;;13.35;10.23;;;;;;;;;;5489059;26;19998;-58
2024/04/13 01:16:35;;;;;;;12.85;10.18;;;;;;;;;;5488777;26;20030;-58
2024/04/13 01:19:01;;;;;;;12.77;10.18;;;;;;;;;;5476823;26;19999;-59
2024/04/13 01:21:30;;;;;;;14.98;11.13;;;;;;;;;;5488776;26;20005;-55
2024/04/13 01:24:04;;;;;;;14.63;9.90;;;;;;;;;;5488813;26;20006;-56
2024/04/13 01:26:37;;;;;;;13.32;9.13;;;;;;;;;;5475366;26;20074;-57
2024/04/13 01:29:04;;;;;;;10.70;9.60;;;;;;;;;;5481302;26;20013;-58
2024/04/13 01:31:33;;;;;;;13.07;10.00;;;;;;;;;;5482906;26;20002;-58
2024/04/13 01:33:59;;;;;;;11.25;9.73;;;;;;;;;;5488155;26;20002;-57
2024/04/13 01:36:30;;;;;;;9.90;8.80;;;;;;;;;;5487120;26;20047;-59
2024/04/13 01:38:55;;;;;;;10.85;8.85;;;;;;;;;;5489097;26;19998;-59
2024/04/13 01:41:27;;;;;;;15.13;10.68;;;;;;;;;;5488798;26;20002;-59
2024/04/13 01:43:53;;;;;;;14.02;10.93;;;;;;;;;;5488592;26;20020;-58
2024/04/13 01:46:21;;;;;;;15.43;11.25;;;;;;;;;;5488410;26;20581;-59
2024/04/13 01:48:47;;;;;;;17.08;12.65;;;;;;;;;;5488729;26;19998;-58
2024/04/13 01:51:16;;;;;;;14.80;11.77;;;;;;;;;;5488769;26;19999;-58
2024/04/13 01:53:42;;;;;;;13.35;10.85;;;;;;;;;;5481980;26;20006;-56
2024/04/13 01:56:10;;;;;;;16.80;12.30;;;;;;;;;;5483965;26;20002;-57
2024/04/13 01:58:39;;;;;;;16.50;12.52;;;;;;;;;;5488302;26;20006;-58
2024/04/13 02:01:08;;;;;;;16.67;12.90;;;;;;;;;;5488076;26;19998;-57
2024/04/13 02:03:34;;;;;;;16.42;12.75;;;;;;;;;;5488054;26;20484;-58
2024/04/13 02:06:04;;;;;;;18.05;13.05;;;;;;;;;;5487781;26;20017;-59
2024/04/13 02:08:32;;;;;;;15.77;12.02;;;;;;;;;;5488221;26;20018;-59
2024/04/13 02:11:01;;;;;;;13.98;10.95;;;;;;;;;;5488378;26;20010;-58
2024/04/13 02:13:28;;;;;;;13.90;10.65;;;;;;;;;;5487981;26;19998;-59
2024/04/13 02:15:59;;;;;;;11.38;8.82;;;;;;;;;;5487984;26;20038;-57
2024/04/13 02:18:25;;;;;;;12.23;8.52;;;;;;;;;;5488011;26;19995;-59
2024/04/13 02:20:53;;;;;;;12.98;9.15;;;;;;;;;;5488204;26;20013;-58
2024/04/13 02:23:19;;;;;;;12.80;8.88;;;;;;;;;;5487891;26;20014;-59
2024/04/13 02:25:49;;;;;;;12.10;8.30;;;;;;;;;;5488097;26;20002;-57
2024/04/13 02:28:15;;;;;;;11.90;8.18;;;;;;;;;;5487912;26;20042;-59
2024/04/13 02:30:44;;;;;;;12.98;9.52;;;;;;;;;;5488218;26;20017;-59
2024/04/13 02:33:13;;;;;;;10.65;8.70;;;;;;;;;;5487671;26;19998;-58
2024/04/13 02:35:41;;;;;;;13.80;9.07;;;;;;;;;;5487549;26;20404;-58
2024/04/13 02:38:08;;;;;;;10.05;8.55;;;;;;;;;;5487686;26;19998;-57
2024/04/13 02:40:37;;;;;;;13.07;9.02;;;;;;;;;;5487617;26;19994;-55
2024/04/13 02:43:03;;;;;;;12.20;9.30;;;;;;;;;;5479113;26;19998;-58
2024/04/13 02:45:32;;;;;;;11.45;9.63;;;;;;;;;;5487357;26;20521;-57
2024/04/13 02:47:58;;;;;;;11.52;10.32;;;;;;;;;;5487183;26;19994;-59
2024/04/13 02:50:29;;;;;;;14.18;10.50;;;;;;;;;;5487905;26;20059;-57
2024/04/13 02:52:57;;;;;;;12.68;10.13;;;;;;;;;;5487883;26;19994;-57
2024/04/13 02:55:26;;;;;;;13.50;10.52;;;;;;;;;;5487547;26;20006;-56
2024/04/13 02:57:52;;;;;;;12.70;10.05;;;;;;;;;;5487753;26;20350;-59
2024/04/13 03:00:20;;;;;;;12.13;9.70;;;;;;;;;;5487731;26;20013;-57
2024/04/13 03:02:47;;;;;;;11.50;9.50;;;;;;;;;;5486425;26;20003;-58
2024/04/13 03:05:16;;;;;;;12.15;9.85;;;;;;;;;;5487426;26;20020;-59
2024/04/13 03:07:45;;;;;;;12.45;9.63;;;;;;;;;;5483812;26;20006;-56
2024/04/13 03:10:14;;;;;;;12.23;9.50;;;;;;;;;;5487353;26;20002;-56
2024/04/13 03:12:40;;;;;;;10.77;9.18;;;;;;;;;;5487298;26;20048;-58
2024/04/13 03:15:10;;;;;;;13.73;9.55;;;;;;;;;;5487361;26;20016;-58
2024/04/13 03:17:36;;;;;;;11.57;9.20;;;;;;;;;;5477042;26;20496;-56
2024/04/13 03:20:06;;;;;;;13.00;10.55;;;;;;;;;;5477505;26;20002;-55
2024/04/13 03:22:33;;;;;;;12.52;9.15;;;;;;;;;;5479622;26;20017;-58
2024/04/13 03:25:05;;;;;;;10.52;8.52;;;;;;;;;;5486917;26;20074;-55
2024/04/13 03:27:33;;;;;;;10.60;8.68;;;;;;;;;;5483351;26;19994;-56
2024/04/13 03:30:01;;;;;;;10.65;8.68;;;;;;;;;;5487079;26;19994;-55
2024/04/13 03:32:27;;;;;;;14.57;9.23;;;;;;;;;;5478628;26;20006;-58
2024/04/13 03:34:56;;;;;;;12.88;9.75;;;;;;;;;;5482566;26;20017;-57
2024/04/13 03:37:22;;;;;;;11.45;8.80;;;;;;;;;;5486973;26;20002;-56
2024/04/13 03:39:50;;;;;;;12.25;9.52;;;;;;;;;;5487110;26;20016;-59
2024/04/13 03:42:22;;;;;;;12.23;8.93;;;;;;;;;;5486831;26;19998;-58
2024/04/13 03:44:50;;;;;;;12.63;9.68;;;;;;;;;;5486943;26;20013;-58
2024/04/13 03:47:19;;;;;;;11.63;8.45;;;;;;;;;;5486713;26;19998;-58
2024/04/13 03:49:45;;;;;;;11.57;9.02;;;;;;;;;;5486988;26;19998;-57
2024/04/13 03:52:13;;;;;;;11.38;9.48;;;;;;;;;;5486845;26;20477;-59
2024/04/13 03:54:41;;;;;;;11.43;9.63;;;;;;;;;;5486631;26;20078;-59
2024/04/13 03:57:11;;;;;;;11.25;8.85;;;;;;;;;;5486486;26;19994;-59
2024/04/13 03:59:40;;;;;;;12.33;9.63;;;;;;;;;;5482541;26;20009;-59
2024/04/13 04:02:08;;;;;;;12.85;10.10;;;;;;;;;;5486655;26;20009;-60
2024/04/13 04:04:34;;;;;;;12.40;9.85;;;;;;;;;;5486852;26;20098;-60
2024/04/13 04:07:02;;;;;;;11.98;9.38;;;;;;;;;;5486381;26;20430;-59
2024/04/13 04:09:28;;;;;;;11.43;9.07;;;;;;;;;;5486491;26;20002;-56
2024/04/13 04:11:57;;;;;;;12.65;9.50;;;;;;;;;;5486624;26;20017;-59
2024/04/13 04:14:23;;;;;;;11.10;9.70;;;;;;;;;;5486077;26;20382;-58
2024/04/13 04:16:55;;;;;;;11.18;9.10;;;;;;;;;;5486243;26;20017;-59
2024/04/13 04:19:22;;;;;;;10.60;8.93;;;;;;;;;;5486417;26;20417;-60
2024/04/13 04:21:51;;;;;;;11.23;9.38;;;;;;;;;;5486656;26;20648;-59
2024/04/13 04:24:17;;;;;;;12.23;9.02;;;;;;;;;;5486653;26;19998;-60
2024/04/13 04:26:45;;;;;;;11.90;9.88;;;;;;;;;;5486823;26;20013;-58
2024/04/13 04:29:11;;;;;;;11.90;9.27;;;;;;;;;;5487011;26;19999;-57
2024/04/13 04:31:41;;;;;;;12.90;9.57;;;;;;;;;;5487021;26;19997;-60
2024/04/13 04:34:09;;;;;;;12.25;10.13;;;;;;;;;;5486283;26;20013;-58
2024/04/13 04:36:39;;;;;;;15.75;11.52;;;;;;;;;;5486449;26;19999;-58
2024/04/13 04:39:05;;;;;;;15.13;11.80;;;;;;;;;;5486609;26;20013;-58
2024/04/13 04:41:34;;;;;;;16.25;12.85;;;;;;;;;;5486450;26;20224;-59
2024/04/13 04:44:01;;;;;;;15.43;12.35;;;;;;;;;;5486151;26;20486;-59
2024/04/13 04:46:29;;;;;;;17.08;12.55;;;;;;;;;;5486546;26;19995;-59
2024/04/13 04:48:55;;;;;;;16.35;13.48;;;;;;;;;;5486412;26;20002;-58
2024/04/13 04:51:26;;;;;;;17.98;13.40;;;;;;;;;;5475284;26;20073;-54
2024/04/13 04:53:53;;;;;;;17.00;12.80;;;;;;;;;;5476442;26;20017;-58
2024/04/13 04:56:21;;;;;;;20.45;12.65;;;;;;;;;;5484740;26;20047;-57
2024/04/13 04:58:47;;;;;;;17.08;12.77;;;;;;;;;;5485611;26;20006;-59
2024/04/13 05:01:16;;;;;;;15.13;11.75;;;;;;;;;;5485447;26;20078;-59
2024/04/13 05:03:41;;;;;;;14.98;11.20;;;;;;;;;;5485665;26;20018;-59
2024/04/13 05:06:10;;;;;;;14.18;11.52;;;;;;;;;;5485334;26;20013;-54
2024/04/13 05:08:39;;;;;;;14.55;11.00;;;;;;;;;;5477737;26;20010;-58
2024/04/13 05:11:07;;;;;;;15.68;13.05;;;;;;;;;;5488947;26;20074;-59
2024/04/13 05:13:33;;;;;;;14.00;10.45;;;;;;;;;;5489257;26;20009;-60
2024/04/13 05:16:01;;;;;;;15.32;10.25;;;;;;;;;;5489184;26;20096;-59
2024/04/13 05:18:27;;;;;;;12.48;9.27;;;;;;;;;;5475384;26;20457;-58
2024/04/13 05:20:56;;;;;;;12.20;8.98;;;;;;;;;;5489560;26;20034;-60
2024/04/13 05:23:22;;;;;;;10.38;8.82;;;;;;;;;;5489377;26;20009;-58
2024/04/13 05:25:53;;;;;;;10.65;8.80;;;;;;;;;;5485733;26;20074;-60
2024/04/13 05:28:20;;;;;;;12.45;8.27;;;;;;;;;;5487648;26;20002;-59
2024/04/13 05:30:56;;;;;;;11.05;8.23;;;;;;;;;;5489455;26;20030;-59
2024/04/13 05:33:22;;;;;;;9.73;8.13;;;;;;;;;;5488515;26;19999;-59
2024/04/13 05:35:51;;;;;;;10.50;8.32;;;;;;;;;;5488987;26;20086;-59
2024/04/13 05:38:17;;;;;;;11.82;9.30;;;;;;;;;;5488992;26;19994;-60
2024/04/13 05:40:45;;;;;;;13.32;8.77;;;;;;;;;;5489166;26;20007;-59
2024/04/13 05:43:16;;;;;;;10.60;8.13;;;;;;;;;;5488991;26;20322;-57
2024/04/13 05:45:45;;;;;;;10.40;8.35;;;;;;;;;;5489009;26;20454;-55
2024/04/13 05:48:11;;;;;;;10.93;8.40;;;;;;;;;;5489345;26;20311;-59
2024/04/13 05:50:40;;;;;;;10.02;8.55;;;;;;;;;;5489353;26;20438;-59
2024/04/13 05:53:06;;;;;;;9.98;8.30;;;;;;;;;;5488591;26;20025;-59
2024/04/13 05:55:39;;;;;;;10.98;8.25;;;;;;;;;;5489031;26;20033;-58
2024/04/13 05:58:05;;;;;;;9.13;7.80;;;;;;;;;;5488746;26;20002;-58
2024/04/13 06:00:36;;;;;;;11.35;9.15;;;;;;;;;;5489102;26;19998;-58
2024/04/13 06:03:02;;;;;;;10.52;7.63;;;;;;;;;;5489012;26;20010;-57
2024/04/13 06:05:31;;;;;;;11.30;7.68;;;;;;;;;;5488213;26;20473;-58
2024/04/13 06:07:57;;;;;;;11.55;8.30;;;;;;;;;;5482120;26;19998;-58
2024/04/13 06:10:26;;;;;;;11.90;8.45;;;;;;;;;;5488672;26;20009;-57
2024/04/13 06:12:52;;;;;;;9.45;7.35;;;;;;;;;;5488643;26;19994;-58
2024/04/13 06:15:20;;;;;;;13.52;8.57;;;;;;;;;;5488427;26;20005;-58
2024/04/13 06:17:49;;;;;;;10.23;8.25;;;;;;;;;;5488648;26;20002;-59
2024/04/13 06:20:18;;;;;;;11.63;7.78;;;;;;;;;;5488534;26;20021;-56
2024/04/13 06:22:47;;;;;;;15.98;8.70;;;;;;;;;;5487497;26;19998;-58
2024/04/13 06:25:16;;;;;;;13.15;9.40;;;;;;;;;;5488059;26;20002;-59
2024/04/13 06:27:42;;;;;;;13.30;9.52;;;;;;;;;;5488381;26;20002;-59
2024/04/13 06:30:13;;;;;;;11.23;9.45;;;;;;;;;;5487869;26;20460;-59
2024/04/13 06:32:39;;;;;;;12.18;9.55;;;;;;;;;;5488134;26;19994;-58
2024/04/13 06:35:11;;;;;;;12.52;9.10;;;;;;;;;;5488298;26;20006;-58
2024/04/13 06:37:37;;;;;;;12.80;9.35;;;;;;;;;;5488085;26;19995;-59
2024/04/13 06:40:06;;;;;;;10.27;8.40;;;;;;;;;;5488087;26;20006;-59
2024/04/13 06:42:33;;;;;;;11.50;9.02;;;;;;;;;;5488145;26;20002;-58
2024/04/13 06:45:02;;;;;;;11.57;9.13;;;;;;;;;;5488445;26;20042;-59
2024/04/13 06:47:28;;;;;;;13.05;8.75;;;;;;;;;;5473818;26;20013;-59
2024/04/13 06:49:57;;;;;;;10.27;9.05;;;;;;;;;;5488122;26;20014;-57
2024/04/13 06:52:26;;;;;;;12.60;8.38;;;;;;;;;;5487375;26;20078;-58
2024/04/13 06:54:54;;;;;;;11.68;7.75;;;;;;;;;;5487813;26;20461;-58
2024/04/13 06:57:20;;;;;;;10.63;8.23;;;;;;;;;;5487722;26;20006;-57
2024/04/13 06:59:49;;;;;;;9.70;7.85;;;;;;;;;;5488141;26;20006;-59
2024/04/13 07:02:16;;;;;;;10.80;7.85;;;;;;;;;;5478878;26;20010;-59
2024/04/13 07:04:44;;;;;;;10.20;8.27;;;;;;;;;;5480352;26;20006;-58
2024/04/13 07:07:10;;;;;;;12.52;8.38;;;;;;;;;;5487099;26;20356;-59
2024/04/13 07:09:41;;;;;;;10.07;7.40;;;;;;;;;;5487833;26;20095;-58
2024/04/13 07:12:08;;;;;;;10.13;7.13;;;;;;;;;;5478569;26;20493;-57
2024/04/13 07:14:37;;;;;;;8.25;6.40;;;;;;;;;;5479051;26;20315;-59
2024/04/13 07:17:04;;;;;;;9.10;6.20;;;;;;;;;;5473329;26;19998;-58
2024/04/13 07:19:32;;;;;;;8.55;6.18;;;;;;;;;;5481222;26;20015;-56
2024/04/13 07:21:58;;;;;;;7.70;6.00;;;;;;;;;;5486387;26;20349;-57
2024/04/13 07:24:31;;;;;;;7.25;5.93;;;;;;;;;;5485359;26;20077;-57
2024/04/13 07:27:00;;;;;;;8.23;6.57;;;;;;;;;;5486420;26;20065;-59
2024/04/13 07:29:30;;;;;;;8.90;6.80;;;;;;;;;;5477799;26;20341;-59
2024/04/13 07:31:55;;;;;;;13.13;7.18;;;;;;;;;;5474641;26;20010;-59
2024/04/13 07:34:24;;;;;;;8.07;6.35;;;;;;;;;;5481537;26;20350;-59
2024/04/13 07:36:50;;;;;;;8.82;6.32;;;;;;;;;;5480579;26;20450;-59
2024/04/13 07:39:19;;;;;;;8.88;6.47;;;;;;;;;;5486767;26;20009;-59
2024/04/13 07:41:44;;;;;;;7.35;5.97;;;;;;;;;;5487460;26;20013;-58
2024/04/13 07:44:16;;;;;;;7.57;6.35;;;;;;;;;;5486747;26;20002;-59
2024/04/13 07:46:42;;;;;;;9.73;7.15;;;;;;;;;;5466676;26;20322;-57
2024/04/13 07:49:11;;;;;;;12.27;7.30;;;;;;;;;;5487311;26;19995;-58
2024/04/13 07:51:37;;;;;;;11.93;8.13;;;;;;;;;;5486701;26;20006;-58
2024/04/13 07:54:05;;;;;;;9.80;6.03;;;;;;;;;;5483825;26;20016;-58
2024/04/13 07:56:31;;;;;;;10.13;6.55;;;;;;;;;;5481048;26;20454;-58
2024/04/13 07:59:00;;;;;;;9.52;6.28;;;;;;;;;;5475437;26;20007;-58
2024/04/13 08:01:29;;;;;;;9.68;7.72;;;;;;;;;;5486886;26;20111;-56
2024/04/13 08:03:57;;;;;;;7.35;6.40;;;;;;;;;;5486911;26;20437;-59
2024/04/13 08:06:25;;;;;;;9.90;6.82;;;;;;;;;;5480673;26;20017;-58
2024/04/13 08:08:54;;;;;;;9.27;7.00;;;;;;;;;;5484539;26;20010;-58
2024/04/13 08:11:19;;;;;;;11.00;6.95;;;;;;;;;;5486934;26;20069;-59
2024/04/13 08:13:48;;;;;;;11.68;7.70;;;;;;;;;;5486663;26;20017;-59
2024/04/13 08:16:14;;;;;;;11.18;8.60;;;;;;;;;;5486096;26;19998;-59
2024/04/13 08:18:45;;;;;;;11.10;8.35;;;;;;;;;;5486570;26;20056;-59
2024/04/13 08:21:11;;;;;;;10.43;8.25;;;;;;;;;;5485652;26;20017;-59
2024/04/13 08:23:39;;;;;;;12.25;7.65;;;;;;;;;;5486421;26;20009;-59
2024/04/13 08:26:05;;;;;;;11.15;8.90;;;;;;;;;;5486219;26;20010;-57
2024/04/13 08:28:34;;;;;;;11.20;8.75;;;;;;;;;;5486344;26;19999;-58
2024/04/13 08:31:04;;;;;;;10.65;7.57;;;;;;;;;;5480750;26;20044;-59
2024/04/13 08:33:32;;;;;;;11.37;7.97;;;;;;;;;;5475569;26;20025;-58
2024/04/13 08:36:04;;;;;;;9.95;8.52;;;;;;;;;;5484600;26;19994;-60
2024/04/13 08:38:33;;;;;;;9.80;7.47;;;;;;;;;;5480154;26;19998;-59
2024/04/13 08:41:02;;;;;;;11.85;7.55;;;;;;;;;;5484708;26;20010;-59
2024/04/13 08:43:31;;;;;;;8.98;7.22;;;;;;;;;;5475761;26;20083;-57
2024/04/13 08:46:03;;;;;;;12.02;8.68;;;;;;;;;;5483720;26;20002;-59
2024/04/13 08:48:32;;;;;;;11.32;7.97;;;;;;;;;;5490098;26;20016;-58
2024/04/13 08:51:00;;;;;;;10.95;8.18;;;;;;;;;;5486077;26;20021;-55
2024/04/13 08:53:32;;;;;;;10.05;7.22;;;;;;;;;;5488935;26;20490;-58
2024/04/13 08:56:00;;;;;;;12.32;8.80;;;;;;;;;;5469463;26;20418;-58
2024/04/13 08:58:30;;;;;;;11.15;8.68;;;;;;;;;;5489429;26;20368;-58
2024/04/13 09:00:59;;;;;;;10.88;8.32;;;;;;;;;;5489932;26;19994;-58
2024/04/13 09:03:30;;;;;;;10.95;8.02;;;;;;;;;;5489345;26;20008;-55
2024/04/13 09:05:55;;;;;;;10.38;7.30;;;;;;;;;;5489520;26;20107;-59
2024/04/13 09:08:25;;;;;;;11.50;8.68;;;;;;;;;;5489601;26;20014;-59
2024/04/13 09:10:56;;;;;;;10.57;8.48;;;;;;;;;;5489477;26;20017;-59
2024/04/13 09:13:24;;;;;;;10.45;7.68;;;;;;;;;;5489431;26;20010;-58
2024/04/13 09:15:50;;;;;;;12.50;8.68;;;;;;;;;;5489187;26;20017;-59
2024/04/13 09:18:19;;;;;;;10.55;8.35;;;;;;;;;;5487328;26;20533;-58
2024/04/13 09:20:45;;;;;;;9.90;8.27;;;;;;;;;;5486522;26;19998;-57
2024/04/13 09:23:14;;;;;;;10.85;8.27;;;;;;;;;;5479471;26;20541;-58
2024/04/13 09:25:40;;;;;;;13.07;7.97;;;;;;;;;;5488209;26;20078;-55
2024/04/13 09:28:12;;;;;;;10.05;7.53;;;;;;;;;;5482787;26;20018;-59
2024/04/13 09:30:39;;;;;;;10.20;7.90;;;;;;;;;;5486267;26;20003;-57
2024/04/13 09:33:10;;;;;;;9.77;7.65;;;;;;;;;;5472301;26;19995;-58
2024/04/13 09:35:36;;;;;;;10.75;7.13;;;;;;;;;;5488534;26;20013;-58
2024/04/13 09:38:04;;;;;;;10.75;7.30;;;;;;;;;;5489302;26;20006;-58
2024/04/13 09:40:30;;;;;;;12.07;7.72;;;;;;;;;;5489076;26;20420;-53
2024/04/13 09:43:00;;;;;;;9.93;6.80;;;;;;;;;;5483985;26;20075;-56
2024/04/13 09:45:28;;;;;;;11.93;7.22;;;;;;;;;;5483469;26;20036;-60
2024/04/13 09:48:00;;;;;;;9.82;6.55;;;;;;;;;;5488606;26;20006;-61
2024/04/13 09:50:27;;;;;;;13.35;7.43;;;;;;;;;;5488877;26;20017;-59
2024/04/13 09:52:57;;;;;;;8.75;6.53;;;;;;;;;;5482163;26;20016;-59
2024/04/13 09:55:23;;;;;;;;;;;;;;;;;;5489376;26;20066;-58
2024/04/13 09:57:53;;;;;;;8.57;6.30;;;;;;;;;;5486960;26;19924;-59
2024/04/13 10:00:19;;;;;;;10.23;7.00;;;;;;;;;;5488547;26;20322;-59
2024/04/13 10:02:51;;;;;;;9.75;6.85;;;;;;;;;;5488702;26;19999;-59
2024/04/13 10:05:19;;;;;;;11.48;7.70;;;;;;;;;;5473814;26;20082;-59
2024/04/13 10:07:48;;;;;;;11.35;8.40;;;;;;;;;;5488790;26;20457;-60
2024/04/13 10:10:15;;;;;;;12.05;8.57;;;;;;;;;;5488669;26;20006;-58
2024/04/13 10:12:46;;;;;;;8.85;7.20;;;;;;;;;;5482858;26;20034;-58
2024/04/13 10:15:13;;;;;;;9.60;6.68;;;;;;;;;;5488396;26;20114;-59
2024/04/13 10:17:43;;;;;;;9.25;6.38;;;;;;;;;;5488370;26;20074;-59
2024/04/13 10:20:13;;;;;;;;;;;;;;;;;;5488920;26;20013;-59
2024/04/13 10:22:42;;;;;;;9.63;7.00;;;;;;;;;;5488251;26;19924;-58
2024/04/13 10:25:08;;;;;;;10.85;6.60;;;;;;;;;;5488467;26;20013;-56
2024/04/13 10:27:38;;;;;;;12.77;6.90;;;;;;;;;;5488376;26;20001;-58
2024/04/13 10:30:07;;;;;;;;;;;;;;;;;;5488905;26;19998;-59
2024/04/13 10:32:33;;;;;;;7.97;6.05;;;;;;;;;;5488144;26;20403;-58
2024/04/13 10:35:11;;;;;;;9.32;6.40;;;;;;;;;;5488159;26;20017;-58
2024/04/13 10:37:39;;;;;;;9.73;6.88;;;;;;;;;;5475838;26;19998;-57
2024/04/13 10:40:10;;;;;;;9.23;6.40;;;;;;;;;;5486759;26;20010;-59
2024/04/13 10:42:36;;;;;;;;;;;;;;;;;;5488508;26;20028;-52
2024/04/13 10:45:14;;;;;;;7.93;6.38;;;;;;;;;;5466348;26;19924;-58
2024/04/13 10:47:40;;;;;;;8.75;6.72;;;;;;;;;;5488084;26;19995;-58
2024/04/13 10:50:12;;;;;;;9.55;6.30;;;;;;;;;;5487856;26;20006;-59
2024/04/13 10:52:41;;;;;;;10.85;7.15;;;;;;;;;;5487824;26;20010;-58
2024/04/13 10:55:14;;;;;;;12.57;7.28;;;;;;;;;;5481365;26;19998;-59
2024/04/13 10:57:40;;;;;;;9.98;6.88;;;;;;;;;;5481389;26;20006;-59
2024/04/13 11:00:10;;;;;;;7.05;5.60;;;;;;;;;;5480050;26;20006;-57
2024/04/13 11:02:36;;;;;;;10.03;7.13;;;;;;;;;;5470527;26;20010;-59
2024/04/13 11:05:05;;;;;;;9.75;6.80;;;;;;;;;;5475867;26;20012;-59
2024/04/13 11:07:31;;;;;;;11.55;7.25;;;;;;;;;;5473136;26;20032;-58
2024/04/13 11:10:04;;;;;;;8.63;5.78;;;;;;;;;;5469548;26;20013;-59
2024/04/13 11:12:30;;;;;;;9.43;6.22;;;;;;;;;;5467438;26;20014;-58
2024/04/13 11:14:58;;;;;;;8.98;5.93;;;;;;;;;;5466416;26;20010;-59
2024/04/13 11:17:24;;;;;;;7.95;5.80;;;;;;;;;;5473465;26;20366;-60
2024/04/13 11:19:53;;;;;;;8.10;6.35;;;;;;;;;;5478573;26;20014;-59
2024/04/13 11:22:20;;;;;;;8.27;5.72;;;;;;;;;;5479875;26;20453;-62
2024/04/13 11:24:48;;;;;;;9.68;5.68;;;;;;;;;;5475545;26;20006;-63
2024/04/13 11:27:18;;;;;;;7.90;5.30;;;;;;;;;;5487525;26;19997;-57
2024/04/13 11:29:47;;;;;;;7.45;5.15;;;;;;;;;;5486151;26;20394;-62
2024/04/13 11:32:13;;;;;;;8.15;5.05;;;;;;;;;;5486952;26;20002;-64
2024/04/13 11:34:41;;;;;;;82.10;40.78;;;;;;;;;;5487104;26;19994;-64
2024/04/13 11:37:10;;;;;;;39.13;20.40;;;;;;;;;;5484804;26;20402;-63
2024/04/13 11:39:40;;;;;;;141.98;70.45;;;;;;;;;;5486430;26;20010;-63
2024/04/13 11:42:07;;;;;;;98.20;46.55;;;;;;;;;;5486753;26;20482;-64
2024/04/13 11:44:39;;;;;;;24.52;13.60;;;;;;;;;;5487138;26;20108;-64
2024/04/13 11:47:06;;;;;;;15.07;9.05;;;;;;;;;;5471872;26;20467;-58
2024/04/13 11:49:35;;;;;;;21.33;11.40;;;;;;;;;;5477116;26;20009;-57
2024/04/13 11:52:01;;;;;;;27.83;13.73;;;;;;;;;;5484670;26;20341;-58
2024/04/13 11:54:31;;;;;;;7.97;5.47;;;;;;;;;;5486818;26;20010;-58
2024/04/13 11:56:56;;;;;;;46.58;22.67;;;;;;;;;;5484814;26;20018;-57
2024/04/13 11:59:25;;;;;;;39.55;21.10;;;;;;;;;;5485497;26;20513;-60
2024/04/13 12:01:54;;;;;;;22.58;13.32;;;;;;;;;;5483437;26;19998;-60
2024/04/13 12:04:23;;;;;;;19.38;10.80;;;;;;;;;;5485942;26;20017;-58
2024/04/13 12:06:49;;;;;;;14.32;8.38;;;;;;;;;;5487171;26;19994;-58
2024/04/13 12:09:17;;;;;;;9.52;6.13;;;;;;;;;;5486957;26;19998;-58
2024/04/13 12:11:45;;;;;;;11.02;6.18;;;;;;;;;;5481400;26;20007;-57
2024/04/13 12:14:13;;;;;;;9.80;5.55;;;;;;;;;;5478121;26;20083;-57
2024/04/13 12:16:39;;;;;;;11.77;6.68;;;;;;;;;;5486148;26;20543;-54
2024/04/13 12:19:11;;;;;;;14.02;8.52;;;;;;;;;;5480861;26;19999;-56
2024/04/13 12:21:37;;;;;;;7.35;4.78;;;;;;;;;;5472672;26;19999;-56
2024/04/13 12:24:06;;;;;;;12.90;5.97;;;;;;;;;;5478207;26;20009;-56
2024/04/13 12:26:33;;;;;;;9.35;6.85;;;;;;;;;;5487209;26;20012;-58
2024/04/13 12:29:01;;;;;;;20.10;10.45;;;;;;;;;;5476534;26;20099;-58
2024/04/13 12:31:27;;;;;;;19.42;11.32;;;;;;;;;;5474637;26;20014;-59
2024/04/13 12:33:56;;;;;;;9.52;6.38;;;;;;;;;;5482296;26;20330;-57
2024/04/13 12:36:24;;;;;;;10.48;6.35;;;;;;;;;;5489235;26;20006;-57
2024/04/13 12:38:54;;;;;;;7.13;4.30;;;;;;;;;;5489810;26;20014;-58
2024/04/13 12:41:20;;;;;;;9.88;5.28;;;;;;;;;;5483202;26;20070;-59
2024/04/13 12:43:48;;;;;;;9.95;5.05;;;;;;;;;;5481081;26;20009;-59
2024/04/13 12:46:14;;;;;;;7.00;4.38;;;;;;;;;;5477489;26;20020;-59
2024/04/13 12:48:43;;;;;;;5.85;4.53;;;;;;;;;;5484608;26;20010;-59
2024/04/13 12:51:13;;;;;;;7.90;4.35;;;;;;;;;;5477240;26;20435;-59
2024/04/13 12:53:44;;;;;;;;;;;;;;;;;;5469272;26;20013;-59
2024/04/13 12:56:10;;;;;;;5.88;4.18;;;;;;;;;;5486676;26;20427;-59
2024/04/13 12:58:39;;;;;;;8.25;5.45;;;;;;;;;;5488354;26;20002;-59
2024/04/13 13:01:05;;;;;;;10.50;5.88;;;;;;;;;;5484035;26;20002;-59
2024/04/13 13:03:33;;;;;;;9.10;5.45;;;;;;;;;;5488750;26;20009;-59
2024/04/13 13:05:59;;;;;;;7.00;3.88;;;;;;;;;;5488934;26;20078;-59
2024/04/13 13:08:29;;;;;;;5.55;3.17;;;;;;;;;;5489229;26;20006;-60
2024/04/13 13:10:58;;;;;;;;;;;;;;;;;;5488445;26;20112;-59
2024/04/13 13:13:26;;;;;;;5.05;3.38;;;;;;;;;;5474127;26;19938;-59
2024/04/13 13:15:52;;;;;;;5.95;3.40;;;;;;;;;;5475452;26;20006;-59
2024/04/13 13:18:21;;;;;;;6.68;3.30;;;;;;;;;;5471304;26;20014;-59
2024/04/13 13:20:47;;;;;;;10.00;4.50;;;;;;;;;;5485806;26;20025;-59
2024/04/13 13:23:15;;;;;;;7.70;3.83;;;;;;;;;;5474466;26;20014;-58
2024/04/13 13:25:43;;;;;;;6.25;3.58;;;;;;;;;;5488071;26;20021;-59
2024/04/13 13:28:14;;;;;;;8.13;4.20;;;;;;;;;;5475374;26;20026;-63
2024/04/13 13:30:40;;;;;;;10.18;4.63;;;;;;;;;;5488805;26;20013;-59
2024/04/13 13:33:09;;;;;;;8.90;4.75;;;;;;;;;;5488689;26;20457;-60
2024/04/13 13:35:36;;;;;;;5.90;3.35;;;;;;;;;;5484227;26;20043;-59
2024/04/13 13:38:04;;;;;;;13.75;6.57;;;;;;;;;;5475831;26;20002;-62
2024/04/13 13:40:30;;;;;;;8.85;4.32;;;;;;;;;;5472838;26;20017;-59
2024/04/13 13:42:59;;;;;;;4.63;3.08;;;;;;;;;;5488571;26;20009;-58
2024/04/13 13:45:28;;;;;;;7.82;3.35;;;;;;;;;;5469961;26;20010;-57
2024/04/13 13:47:56;;;;;;;7.15;4.32;;;;;;;;;;5465902;26;20010;-59
2024/04/13 13:50:22;;;;;;;8.75;4.68;;;;;;;;;;5476240;26;20477;-58
2024/04/13 13:52:51;;;;;;;6.60;3.50;;;;;;;;;;5488082;26;20013;-59
2024/04/13 13:55:17;;;;;;;5.85;3.10;;;;;;;;;;5487880;26;20047;-59
2024/04/13 13:57:46;;;;;;;8.50;3.17;;;;;;;;;;5476661;26;19998;-60
2024/04/13 14:00:12;;;;;;;5.07;3.70;;;;;;;;;;5482988;26;19998;-59
2024/04/13 14:02:46;;;;;;;4.95;2.83;;;;;;;;;;5466255;26;19998;-59
2024/04/13 14:05:12;;;;;;;5.15;2.83;;;;;;;;;;5483717;26;20434;-59
2024/04/13 14:07:40;;;;;;;7.88;3.50;;;;;;;;;;5478830;26;20017;-59
2024/04/13 14:10:06;;;;;;;6.20;3.20;;;;;;;;;;5482287;26;20075;-59
2024/04/13 14:12:35;;;;;;;5.00;3.35;;;;;;;;;;5487936;26;19998;-57
2024/04/13 14:15:02;;;;;;;6.25;3.55;;;;;;;;;;5488171;26;20434;-59
2024/04/13 14:17:31;;;;;;;5.03;3.28;;;;;;;;;;5479582;26;20025;-59
2024/04/13 14:20:02;;;;;;;6.43;3.10;;;;;;;;;;5482463;26;20436;-59
2024/04/13 14:22:31;;;;;;;5.00;3.65;;;;;;;;;;5487429;26;20007;-59
2024/04/13 14:24:58;;;;;;;6.53;3.38;;;;;;;;;;5489307;26;20091;-59
2024/04/13 14:27:28;;;;;;;5.72;3.28;;;;;;;;;;5487891;26;20002;-58
2024/04/13 14:29:53;;;;;;;6.45;3.25;;;;;;;;;;5471101;26;20526;-59
2024/04/13 14:32:22;;;;;;;6.53;3.00;;;;;;;;;;5469528;26;20010;-58
2024/04/13 14:34:49;;;;;;;6.40;3.40;;;;;;;;;;5465218;26;19999;-58
2024/04/13 14:37:20;;;;;;;5.35;3.50;;;;;;;;;;5486706;26;20494;-59
2024/04/13 14:39:46;;;;;;;5.63;3.53;;;;;;;;;;5487384;26;20090;-58